sensor_id;sensor_type;location;lat;lon;timestamp;P1;durP1;ratioP1;P2;durP2;ratioP2
3417;SDS011;1722;51.316;12.370;2022-09-09T00:00:23;2.73;;;1.83;;
3417;SDS011;1722;51.316;12.370;2022-09-09T00:02:54;3.23;;;2.30;;
3417;SDS011;1722;51.316;12.370;2022-09-09T00:05:31;4.83;;;2.10;;
3417;SDS011;1722;51.316;12.370;2022-09-09T00:08:06;4.53;;;1.73;;
3417;SDS011;1722;51.316;12.370;2022-09-09T00:10:42;3.30;;;1.77;;
3417;SDS011;1722;51.316;12.370;2022-09-09T00:13:13;6.30;;;2.00;;
3417;SDS011;1722;51.316;12.370;2022-09-09T00:15:46;4.50;;;1.90;;
3417;SDS011;1722;51.316;12.370;2022-09-09T00:18:24;4.93;;;2.37;;
3417;SDS011;1722;51.316;12.370;2022-09-09T00:21:00;3.57;;;2.00;;
3417;SDS011;1722;51.316;12.370;2022-09-09T00:23:33;1.87;;;1.60;;
3417;SDS011;1722;51.316;12.370;2022-09-09T00:26:07;7.37;;;2.30;;
3417;SDS011;1722;51.316;12.370;2022-09-09T00:28:39;2.20;;;1.77;;
3417;SDS011;1722;51.316;12.370;2022-09-09T00:31:13;2.33;;;2.13;;
3417;SDS011;1722;51.316;12.370;2022-09-09T00:33:43;3.33;;;2.00;;
3417;SDS011;1722;51.316;12.370;2022-09-09T00:36:14;6.20;;;1.93;;
3417;SDS011;1722;51.316;12.370;2022-09-09T00:38:46;4.60;;;2.03;;
3417;SDS011;1722;51.316;12.370;2022-09-09T00:41:18;4.47;;;1.90;;
3417;SDS011;1722;51.316;12.370;2022-09-09T00:43:55;4.57;;;2.13;;
3417;SDS011;1722;51.316;12.370;2022-09-09T00:46:34;2.80;;;1.87;;
3417;SDS011;1722;51.316;12.370;2022-09-09T00:49:19;3.10;;;1.93;;
3417;SDS011;1722;51.316;12.370;2022-09-09T00:52:01;5.30;;;1.90;;
3417;SDS011;1722;51.316;12.370;2022-09-09T00:54:40;3.30;;;1.80;;
3417;SDS011;1722;51.316;12.370;2022-09-09T00:57:18;5.13;;;1.80;;
3417;SDS011;1722;51.316;12.370;2022-09-09T00:59:56;3.60;;;2.00;;
3417;SDS011;1722;51.316;12.370;2022-09-09T01:02:42;2.10;;;1.60;;
3417;SDS011;1722;51.316;12.370;2022-09-09T01:05:30;2.17;;;1.97;;
3417;SDS011;1722;51.316;12.370;2022-09-09T01:08:05;5.40;;;2.10;;
3417;SDS011;1722;51.316;12.370;2022-09-09T01:10:43;2.50;;;1.70;;
3417;SDS011;1722;51.316;12.370;2022-09-09T01:13:19;2.90;;;1.80;;
3417;SDS011;1722;51.316;12.370;2022-09-09T01:15:50;2.07;;;1.50;;
3417;SDS011;1722;51.316;12.370;2022-09-09T01:18:20;4.30;;;1.90;;
3417;SDS011;1722;51.316;12.370;2022-09-09T01:20:53;7.23;;;2.10;;
3417;SDS011;1722;51.316;12.370;2022-09-09T01:23:44;3.80;;;2.07;;
3417;SDS011;1722;51.316;12.370;2022-09-09T01:26:28;3.63;;;2.17;;
3417;SDS011;1722;51.316;12.370;2022-09-09T01:28:58;6.63;;;2.03;;
3417;SDS011;1722;51.316;12.370;2022-09-09T01:31:26;5.10;;;2.23;;
3417;SDS011;1722;51.316;12.370;2022-09-09T01:33:56;4.87;;;2.03;;
3417;SDS011;1722;51.316;12.370;2022-09-09T01:36:25;1.77;;;1.67;;
3417;SDS011;1722;51.316;12.370;2022-09-09T01:38:56;7.60;;;2.40;;
3417;SDS011;1722;51.316;12.370;2022-09-09T01:41:24;4.33;;;2.03;;
3417;SDS011;1722;51.316;12.370;2022-09-09T01:43:53;3.23;;;2.33;;
3417;SDS011;1722;51.316;12.370;2022-09-09T01:46:22;5.73;;;2.20;;
3417;SDS011;1722;51.316;12.370;2022-09-09T01:48:50;5.67;;;2.53;;
3417;SDS011;1722;51.316;12.370;2022-09-09T01:51:19;4.50;;;2.00;;
3417;SDS011;1722;51.316;12.370;2022-09-09T01:53:47;8.60;;;1.87;;
3417;SDS011;1722;51.316;12.370;2022-09-09T01:56:18;4.83;;;1.97;;
3417;SDS011;1722;51.316;12.370;2022-09-09T01:59:01;5.10;;;2.27;;
3417;SDS011;1722;51.316;12.370;2022-09-09T02:01:35;3.77;;;2.53;;
3417;SDS011;1722;51.316;12.370;2022-09-09T02:04:20;8.33;;;2.27;;
3417;SDS011;1722;51.316;12.370;2022-09-09T02:06:58;3.87;;;1.67;;
3417;SDS011;1722;51.316;12.370;2022-09-09T02:09:28;6.67;;;3.27;;
3417;SDS011;1722;51.316;12.370;2022-09-09T02:11:57;8.77;;;2.57;;
3417;SDS011;1722;51.316;12.370;2022-09-09T02:14:33;3.27;;;1.90;;
3417;SDS011;1722;51.316;12.370;2022-09-09T02:17:06;4.17;;;1.90;;
3417;SDS011;1722;51.316;12.370;2022-09-09T02:19:37;6.83;;;2.10;;
3417;SDS011;1722;51.316;12.370;2022-09-09T02:22:07;11.20;;;2.60;;
3417;SDS011;1722;51.316;12.370;2022-09-09T02:24:36;4.93;;;2.30;;
3417;SDS011;1722;51.316;12.370;2022-09-09T02:27:06;5.43;;;2.33;;
3417;SDS011;1722;51.316;12.370;2022-09-09T02:29:38;4.00;;;2.43;;
3417;SDS011;1722;51.316;12.370;2022-09-09T02:32:09;5.10;;;2.63;;
3417;SDS011;1722;51.316;12.370;2022-09-09T02:34:41;9.03;;;2.50;;
3417;SDS011;1722;51.316;12.370;2022-09-09T02:37:11;5.07;;;1.80;;
3417;SDS011;1722;51.316;12.370;2022-09-09T02:39:44;2.60;;;1.83;;
3417;SDS011;1722;51.316;12.370;2022-09-09T02:42:11;2.83;;;2.00;;
3417;SDS011;1722;51.316;12.370;2022-09-09T02:44:41;3.80;;;2.10;;
3417;SDS011;1722;51.316;12.370;2022-09-09T02:47:25;5.13;;;2.17;;
3417;SDS011;1722;51.316;12.370;2022-09-09T02:49:58;9.43;;;2.70;;
3417;SDS011;1722;51.316;12.370;2022-09-09T02:52:33;12.03;;;2.30;;
3417;SDS011;1722;51.316;12.370;2022-09-09T02:55:09;4.10;;;2.23;;
3417;SDS011;1722;51.316;12.370;2022-09-09T02:57:47;5.20;;;2.37;;
3417;SDS011;1722;51.316;12.370;2022-09-09T03:00:23;5.50;;;2.63;;
3417;SDS011;1722;51.316;12.370;2022-09-09T03:02:51;3.47;;;2.13;;
3417;SDS011;1722;51.316;12.370;2022-09-09T03:05:20;6.27;;;2.83;;
3417;SDS011;1722;51.316;12.370;2022-09-09T03:07:48;5.03;;;2.07;;
3417;SDS011;1722;51.316;12.370;2022-09-09T03:10:16;5.30;;;2.10;;
3417;SDS011;1722;51.316;12.370;2022-09-09T03:12:44;3.80;;;1.80;;
3417;SDS011;1722;51.316;12.370;2022-09-09T03:15:11;3.10;;;2.03;;
3417;SDS011;1722;51.316;12.370;2022-09-09T03:17:40;13.67;;;2.27;;
3417;SDS011;1722;51.316;12.370;2022-09-09T03:20:08;3.83;;;2.30;;
3417;SDS011;1722;51.316;12.370;2022-09-09T03:22:36;4.90;;;2.27;;
3417;SDS011;1722;51.316;12.370;2022-09-09T03:25:04;6.03;;;2.10;;
3417;SDS011;1722;51.316;12.370;2022-09-09T03:27:32;5.70;;;1.80;;
3417;SDS011;1722;51.316;12.370;2022-09-09T03:29:59;9.77;;;2.30;;
3417;SDS011;1722;51.316;12.370;2022-09-09T03:32:29;7.57;;;2.70;;
3417;SDS011;1722;51.316;12.370;2022-09-09T03:34:58;3.17;;;2.00;;
3417;SDS011;1722;51.316;12.370;2022-09-09T03:37:25;3.10;;;1.83;;
3417;SDS011;1722;51.316;12.370;2022-09-09T03:39:53;9.23;;;3.17;;
3417;SDS011;1722;51.316;12.370;2022-09-09T03:42:21;7.43;;;2.23;;
3417;SDS011;1722;51.316;12.370;2022-09-09T03:44:48;8.60;;;3.07;;
3417;SDS011;1722;51.316;12.370;2022-09-09T03:47:17;3.57;;;2.20;;
3417;SDS011;1722;51.316;12.370;2022-09-09T03:49:45;4.97;;;2.37;;
3417;SDS011;1722;51.316;12.370;2022-09-09T03:52:14;7.73;;;1.97;;
3417;SDS011;1722;51.316;12.370;2022-09-09T03:54:42;3.03;;;1.87;;
3417;SDS011;1722;51.316;12.370;2022-09-09T03:57:09;7.03;;;2.30;;
3417;SDS011;1722;51.316;12.370;2022-09-09T03:59:37;3.40;;;1.70;;
3417;SDS011;1722;51.316;12.370;2022-09-09T04:02:04;8.83;;;2.27;;
3417;SDS011;1722;51.316;12.370;2022-09-09T04:04:32;3.40;;;2.40;;
3417;SDS011;1722;51.316;12.370;2022-09-09T04:06:59;4.50;;;2.10;;
3417;SDS011;1722;51.316;12.370;2022-09-09T04:09:28;3.17;;;2.23;;
3417;SDS011;1722;51.316;12.370;2022-09-09T04:11:55;3.60;;;1.80;;
3417;SDS011;1722;51.316;12.370;2022-09-09T04:14:22;3.60;;;1.90;;
3417;SDS011;1722;51.316;12.370;2022-09-09T04:16:54;7.23;;;2.07;;
3417;SDS011;1722;51.316;12.370;2022-09-09T04:19:23;7.13;;;2.13;;
3417;SDS011;1722;51.316;12.370;2022-09-09T04:21:51;5.57;;;2.23;;
3417;SDS011;1722;51.316;12.370;2022-09-09T04:24:18;4.90;;;2.70;;
3417;SDS011;1722;51.316;12.370;2022-09-09T04:26:48;4.33;;;2.10;;
3417;SDS011;1722;51.316;12.370;2022-09-09T04:29:16;4.40;;;1.60;;
3417;SDS011;1722;51.316;12.370;2022-09-09T04:31:43;2.37;;;1.90;;
3417;SDS011;1722;51.316;12.370;2022-09-09T04:34:10;3.33;;;2.00;;
3417;SDS011;1722;51.316;12.370;2022-09-09T04:36:38;7.07;;;2.27;;
3417;SDS011;1722;51.316;12.370;2022-09-09T04:39:06;2.30;;;1.80;;
3417;SDS011;1722;51.316;12.370;2022-09-09T04:41:33;5.97;;;2.17;;
3417;SDS011;1722;51.316;12.370;2022-09-09T04:44:02;4.83;;;2.07;;
3417;SDS011;1722;51.316;12.370;2022-09-09T04:46:29;5.20;;;2.07;;
3417;SDS011;1722;51.316;12.370;2022-09-09T04:48:57;7.20;;;3.03;;
3417;SDS011;1722;51.316;12.370;2022-09-09T04:51:24;9.53;;;2.10;;
3417;SDS011;1722;51.316;12.370;2022-09-09T04:53:52;5.63;;;3.13;;
3417;SDS011;1722;51.316;12.370;2022-09-09T04:56:19;9.40;;;2.53;;
3417;SDS011;1722;51.316;12.370;2022-09-09T04:58:47;8.07;;;2.20;;
3417;SDS011;1722;51.316;12.370;2022-09-09T05:01:16;3.60;;;2.10;;
3417;SDS011;1722;51.316;12.370;2022-09-09T05:03:45;6.53;;;2.30;;
3417;SDS011;1722;51.316;12.370;2022-09-09T05:06:14;7.00;;;2.40;;
3417;SDS011;1722;51.316;12.370;2022-09-09T05:08:43;8.20;;;2.57;;
3417;SDS011;1722;51.316;12.370;2022-09-09T05:11:14;5.50;;;2.37;;
3417;SDS011;1722;51.316;12.370;2022-09-09T05:13:44;6.87;;;3.57;;
3417;SDS011;1722;51.316;12.370;2022-09-09T05:16:12;4.90;;;2.40;;
3417;SDS011;1722;51.316;12.370;2022-09-09T05:18:41;5.63;;;2.40;;
3417;SDS011;1722;51.316;12.370;2022-09-09T05:21:09;4.53;;;2.30;;
3417;SDS011;1722;51.316;12.370;2022-09-09T05:23:37;5.33;;;2.00;;
3417;SDS011;1722;51.316;12.370;2022-09-09T05:26:05;3.97;;;1.80;;
3417;SDS011;1722;51.316;12.370;2022-09-09T05:28:34;7.50;;;2.63;;
3417;SDS011;1722;51.316;12.370;2022-09-09T05:31:02;5.30;;;2.50;;
3417;SDS011;1722;51.316;12.370;2022-09-09T05:33:33;5.00;;;1.87;;
3417;SDS011;1722;51.316;12.370;2022-09-09T05:36:04;5.87;;;2.47;;
3417;SDS011;1722;51.316;12.370;2022-09-09T05:38:34;5.37;;;2.17;;
3417;SDS011;1722;51.316;12.370;2022-09-09T05:41:02;5.17;;;2.17;;
3417;SDS011;1722;51.316;12.370;2022-09-09T05:43:30;3.67;;;2.20;;
3417;SDS011;1722;51.316;12.370;2022-09-09T05:45:58;13.80;;;2.83;;
3417;SDS011;1722;51.316;12.370;2022-09-09T05:48:28;6.07;;;2.10;;
3417;SDS011;1722;51.316;12.370;2022-09-09T05:50:57;3.63;;;2.07;;
3417;SDS011;1722;51.316;12.370;2022-09-09T05:53:26;6.70;;;2.03;;
3417;SDS011;1722;51.316;12.370;2022-09-09T05:55:59;4.57;;;2.20;;
3417;SDS011;1722;51.316;12.370;2022-09-09T05:58:29;4.17;;;1.70;;
3417;SDS011;1722;51.316;12.370;2022-09-09T06:01:00;3.17;;;2.07;;
3417;SDS011;1722;51.316;12.370;2022-09-09T06:03:28;4.37;;;2.20;;
3417;SDS011;1722;51.316;12.370;2022-09-09T06:05:59;4.47;;;2.13;;
3417;SDS011;1722;51.316;12.370;2022-09-09T06:08:29;3.33;;;1.87;;
3417;SDS011;1722;51.316;12.370;2022-09-09T06:11:00;4.23;;;2.20;;
3417;SDS011;1722;51.316;12.370;2022-09-09T06:13:29;5.97;;;1.83;;
3417;SDS011;1722;51.316;12.370;2022-09-09T06:15:57;8.77;;;2.07;;
3417;SDS011;1722;51.316;12.370;2022-09-09T06:18:25;6.63;;;2.00;;
3417;SDS011;1722;51.316;12.370;2022-09-09T06:20:54;3.70;;;1.80;;
3417;SDS011;1722;51.316;12.370;2022-09-09T06:23:22;5.40;;;2.10;;
3417;SDS011;1722;51.316;12.370;2022-09-09T06:25:51;5.00;;;1.77;;
3417;SDS011;1722;51.316;12.370;2022-09-09T06:28:18;7.60;;;2.00;;
3417;SDS011;1722;51.316;12.370;2022-09-09T06:30:46;5.80;;;2.00;;
3417;SDS011;1722;51.316;12.370;2022-09-09T06:33:13;21.53;;;2.10;;
3417;SDS011;1722;51.316;12.370;2022-09-09T06:35:40;10.00;;;2.33;;
3417;SDS011;1722;51.316;12.370;2022-09-09T06:38:08;2.87;;;1.50;;
3417;SDS011;1722;51.316;12.370;2022-09-09T06:40:35;5.43;;;1.80;;
3417;SDS011;1722;51.316;12.370;2022-09-09T06:43:04;7.43;;;1.63;;
3417;SDS011;1722;51.316;12.370;2022-09-09T06:45:31;3.83;;;1.50;;
3417;SDS011;1722;51.316;12.370;2022-09-09T06:48:00;4.07;;;1.73;;
3417;SDS011;1722;51.316;12.370;2022-09-09T06:50:28;5.13;;;2.00;;
3417;SDS011;1722;51.316;12.370;2022-09-09T06:52:55;6.97;;;2.50;;
3417;SDS011;1722;51.316;12.370;2022-09-09T06:55:23;8.80;;;2.10;;
3417;SDS011;1722;51.316;12.370;2022-09-09T06:57:50;3.30;;;1.60;;
3417;SDS011;1722;51.316;12.370;2022-09-09T07:00:19;3.30;;;1.50;;
3417;SDS011;1722;51.316;12.370;2022-09-09T07:02:46;5.90;;;1.73;;
3417;SDS011;1722;51.316;12.370;2022-09-09T07:05:16;2.63;;;1.50;;
3417;SDS011;1722;51.316;12.370;2022-09-09T07:07:44;3.60;;;1.63;;
3417;SDS011;1722;51.316;12.370;2022-09-09T07:10:11;5.47;;;1.80;;
3417;SDS011;1722;51.316;12.370;2022-09-09T07:12:38;2.40;;;1.30;;
3417;SDS011;1722;51.316;12.370;2022-09-09T07:15:06;4.10;;;1.87;;
3417;SDS011;1722;51.316;12.370;2022-09-09T07:17:35;12.33;;;2.53;;
3417;SDS011;1722;51.316;12.370;2022-09-09T07:20:04;9.80;;;2.13;;
3417;SDS011;1722;51.316;12.370;2022-09-09T07:22:32;7.33;;;2.00;;
3417;SDS011;1722;51.316;12.370;2022-09-09T07:25:00;3.33;;;1.53;;
3417;SDS011;1722;51.316;12.370;2022-09-09T07:27:27;5.40;;;1.47;;
3417;SDS011;1722;51.316;12.370;2022-09-09T07:29:55;4.93;;;1.90;;
3417;SDS011;1722;51.316;12.370;2022-09-09T07:32:23;4.47;;;1.70;;
3417;SDS011;1722;51.316;12.370;2022-09-09T07:34:52;2.03;;;1.80;;
3417;SDS011;1722;51.316;12.370;2022-09-09T07:37:20;3.80;;;1.60;;
3417;SDS011;1722;51.316;12.370;2022-09-09T07:39:47;5.93;;;1.80;;
3417;SDS011;1722;51.316;12.370;2022-09-09T07:42:16;3.97;;;1.80;;
3417;SDS011;1722;51.316;12.370;2022-09-09T07:44:45;5.33;;;1.73;;
3417;SDS011;1722;51.316;12.370;2022-09-09T07:47:12;2.60;;;1.30;;
3417;SDS011;1722;51.316;12.370;2022-09-09T07:49:40;5.40;;;1.83;;
3417;SDS011;1722;51.316;12.370;2022-09-09T07:52:08;3.63;;;1.43;;
3417;SDS011;1722;51.316;12.370;2022-09-09T07:54:36;5.73;;;1.83;;
3417;SDS011;1722;51.316;12.370;2022-09-09T07:57:03;8.97;;;1.70;;
3417;SDS011;1722;51.316;12.370;2022-09-09T07:59:31;3.03;;;1.40;;
3417;SDS011;1722;51.316;12.370;2022-09-09T08:01:59;3.77;;;1.30;;
3417;SDS011;1722;51.316;12.370;2022-09-09T08:04:26;6.13;;;1.40;;
3417;SDS011;1722;51.316;12.370;2022-09-09T08:06:54;5.03;;;1.53;;
3417;SDS011;1722;51.316;12.370;2022-09-09T08:09:25;4.00;;;1.47;;
3417;SDS011;1722;51.316;12.370;2022-09-09T08:11:54;4.67;;;1.50;;
3417;SDS011;1722;51.316;12.370;2022-09-09T08:14:23;5.27;;;1.40;;
3417;SDS011;1722;51.316;12.370;2022-09-09T08:16:50;3.80;;;1.70;;
3417;SDS011;1722;51.316;12.370;2022-09-09T08:19:19;3.43;;;1.47;;
3417;SDS011;1722;51.316;12.370;2022-09-09T08:21:46;5.60;;;1.50;;
3417;SDS011;1722;51.316;12.370;2022-09-09T08:24:14;2.50;;;1.30;;
3417;SDS011;1722;51.316;12.370;2022-09-09T08:26:44;10.53;;;2.17;;
3417;SDS011;1722;51.316;12.370;2022-09-09T08:29:13;4.60;;;1.47;;
3417;SDS011;1722;51.316;12.370;2022-09-09T08:31:41;8.20;;;1.40;;
3417;SDS011;1722;51.316;12.370;2022-09-09T08:34:10;3.03;;;1.57;;
3417;SDS011;1722;51.316;12.370;2022-09-09T08:36:39;5.90;;;1.60;;
3417;SDS011;1722;51.316;12.370;2022-09-09T08:39:08;4.20;;;1.37;;
3417;SDS011;1722;51.316;12.370;2022-09-09T08:41:45;7.47;;;1.97;;
3417;SDS011;1722;51.316;12.370;2022-09-09T08:47:40;11.10;;;1.80;;
3417;SDS011;1722;51.316;12.370;2022-09-09T08:50:19;6.77;;;2.03;;
3417;SDS011;1722;51.316;12.370;2022-09-09T08:52:53;8.43;;;2.17;;
3417;SDS011;1722;51.316;12.370;2022-09-09T08:55:27;3.43;;;1.40;;
3417;SDS011;1722;51.316;12.370;2022-09-09T08:58:06;6.13;;;1.80;;
3417;SDS011;1722;51.316;12.370;2022-09-09T09:00:41;15.07;;;2.27;;
3417;SDS011;1722;51.316;12.370;2022-09-09T09:03:28;7.77;;;1.70;;
3417;SDS011;1722;51.316;12.370;2022-09-09T09:06:04;5.70;;;1.63;;
3417;SDS011;1722;51.316;12.370;2022-09-09T09:08:43;4.40;;;1.70;;
3417;SDS011;1722;51.316;12.370;2022-09-09T09:11:18;3.33;;;1.70;;
3417;SDS011;1722;51.316;12.370;2022-09-09T09:13:48;5.17;;;1.50;;
3417;SDS011;1722;51.316;12.370;2022-09-09T09:16:23;3.17;;;1.67;;
3417;SDS011;1722;51.316;12.370;2022-09-09T09:19:07;6.47;;;1.80;;
3417;SDS011;1722;51.316;12.370;2022-09-09T09:21:41;8.13;;;1.50;;
3417;SDS011;1722;51.316;12.370;2022-09-09T09:24:13;15.37;;;2.10;;
3417;SDS011;1722;51.316;12.370;2022-09-09T09:26:45;6.77;;;1.80;;
3417;SDS011;1722;51.316;12.370;2022-09-09T09:29:15;6.50;;;1.50;;
3417;SDS011;1722;51.316;12.370;2022-09-09T09:31:45;4.13;;;1.57;;
3417;SDS011;1722;51.316;12.370;2022-09-09T09:34:17;8.00;;;1.30;;
3417;SDS011;1722;51.316;12.370;2022-09-09T09:36:45;5.23;;;1.50;;
3417;SDS011;1722;51.316;12.370;2022-09-09T09:39:24;6.67;;;1.50;;
3417;SDS011;1722;51.316;12.370;2022-09-09T09:41:53;3.03;;;1.70;;
3417;SDS011;1722;51.316;12.370;2022-09-09T09:44:24;8.77;;;1.93;;
3417;SDS011;1722;51.316;12.370;2022-09-09T09:46:53;5.53;;;1.60;;
3417;SDS011;1722;51.316;12.370;2022-09-09T09:49:32;7.43;;;1.83;;
3417;SDS011;1722;51.316;12.370;2022-09-09T09:52:00;4.43;;;1.60;;
3417;SDS011;1722;51.316;12.370;2022-09-09T09:54:29;5.17;;;1.60;;
3417;SDS011;1722;51.316;12.370;2022-09-09T09:57:07;7.10;;;1.43;;
3417;SDS011;1722;51.316;12.370;2022-09-09T09:59:38;8.93;;;2.07;;
3417;SDS011;1722;51.316;12.370;2022-09-09T10:02:11;15.93;;;1.90;;
3417;SDS011;1722;51.316;12.370;2022-09-09T10:04:41;4.47;;;1.30;;
3417;SDS011;1722;51.316;12.370;2022-09-09T10:07:11;5.73;;;1.97;;
3417;SDS011;1722;51.316;12.370;2022-09-09T10:09:39;3.50;;;1.53;;
3417;SDS011;1722;51.316;12.370;2022-09-09T10:12:10;3.60;;;1.63;;
3417;SDS011;1722;51.316;12.370;2022-09-09T10:14:48;4.73;;;1.97;;
3417;SDS011;1722;51.316;12.370;2022-09-09T10:17:22;4.20;;;1.40;;
3417;SDS011;1722;51.316;12.370;2022-09-09T10:20:04;9.80;;;1.80;;
3417;SDS011;1722;51.316;12.370;2022-09-09T10:22:49;4.07;;;1.73;;
3417;SDS011;1722;51.316;12.370;2022-09-09T10:25:36;4.40;;;1.60;;
3417;SDS011;1722;51.316;12.370;2022-09-09T10:28:23;6.20;;;2.07;;
3417;SDS011;1722;51.316;12.370;2022-09-09T10:31:04;2.93;;;1.50;;
3417;SDS011;1722;51.316;12.370;2022-09-09T10:33:43;4.60;;;1.50;;
3417;SDS011;1722;51.316;12.370;2022-09-09T10:36:17;7.53;;;2.10;;
3417;SDS011;1722;51.316;12.370;2022-09-09T10:38:48;8.27;;;2.10;;
3417;SDS011;1722;51.316;12.370;2022-09-09T10:41:29;6.73;;;2.10;;
3417;SDS011;1722;51.316;12.370;2022-09-09T10:44:15;5.07;;;1.40;;
3417;SDS011;1722;51.316;12.370;2022-09-09T10:46:55;2.50;;;1.33;;
3417;SDS011;1722;51.316;12.370;2022-09-09T10:49:37;2.90;;;1.17;;
3417;SDS011;1722;51.316;12.370;2022-09-09T10:52:20;3.87;;;1.57;;
3417;SDS011;1722;51.316;12.370;2022-09-09T10:54:55;6.37;;;1.80;;
3417;SDS011;1722;51.316;12.370;2022-09-09T10:57:28;4.70;;;1.57;;
3417;SDS011;1722;51.316;12.370;2022-09-09T11:00:01;3.30;;;1.33;;
3417;SDS011;1722;51.316;12.370;2022-09-09T11:02:33;1.80;;;1.00;;
3417;SDS011;1722;51.316;12.370;2022-09-09T11:05:02;3.13;;;1.37;;
3417;SDS011;1722;51.316;12.370;2022-09-09T11:07:37;4.07;;;1.30;;
3417;SDS011;1722;51.316;12.370;2022-09-09T11:10:14;6.77;;;1.60;;
3417;SDS011;1722;51.316;12.370;2022-09-09T11:12:46;4.83;;;1.47;;
3417;SDS011;1722;51.316;12.370;2022-09-09T11:15:20;2.10;;;1.43;;
3417;SDS011;1722;51.316;12.370;2022-09-09T11:17:55;3.40;;;1.50;;
3417;SDS011;1722;51.316;12.370;2022-09-09T11:20:25;5.90;;;1.73;;
3417;SDS011;1722;51.316;12.370;2022-09-09T11:22:54;2.57;;;1.23;;
3417;SDS011;1722;51.316;12.370;2022-09-09T11:25:28;6.27;;;1.57;;
3417;SDS011;1722;51.316;12.370;2022-09-09T11:28:06;6.80;;;1.70;;
3417;SDS011;1722;51.316;12.370;2022-09-09T11:30:52;8.23;;;1.70;;
3417;SDS011;1722;51.316;12.370;2022-09-09T11:36:48;3.80;;;1.53;;
3417;SDS011;1722;51.316;12.370;2022-09-09T11:39:43;5.63;;;1.67;;
3417;SDS011;1722;51.316;12.370;2022-09-09T11:42:26;4.87;;;1.37;;
3417;SDS011;1722;51.316;12.370;2022-09-09T11:44:54;1.57;;;1.17;;
3417;SDS011;1722;51.316;12.370;2022-09-09T11:47:23;3.27;;;1.60;;
3417;SDS011;1722;51.316;12.370;2022-09-09T11:50:06;3.77;;;1.37;;
3417;SDS011;1722;51.316;12.370;2022-09-09T11:52:37;5.43;;;1.70;;
3417;SDS011;1722;51.316;12.370;2022-09-09T11:55:09;4.93;;;1.50;;
3417;SDS011;1722;51.316;12.370;2022-09-09T11:57:38;4.50;;;1.37;;
3417;SDS011;1722;51.316;12.370;2022-09-09T12:00:27;7.20;;;1.53;;
3417;SDS011;1722;51.316;12.370;2022-09-09T12:02:59;3.73;;;1.60;;
3417;SDS011;1722;51.316;12.370;2022-09-09T12:05:36;4.40;;;1.27;;
3417;SDS011;1722;51.316;12.370;2022-09-09T12:08:07;5.10;;;1.20;;
3417;SDS011;1722;51.316;12.370;2022-09-09T12:10:38;2.10;;;1.00;;
3417;SDS011;1722;51.316;12.370;2022-09-09T12:13:07;2.23;;;1.00;;
3417;SDS011;1722;51.316;12.370;2022-09-09T12:15:46;2.80;;;1.40;;
3417;SDS011;1722;51.316;12.370;2022-09-09T12:18:15;4.20;;;1.20;;
3417;SDS011;1722;51.316;12.370;2022-09-09T12:20:54;6.10;;;1.50;;
3417;SDS011;1722;51.316;12.370;2022-09-09T12:23:30;3.70;;;1.33;;
3417;SDS011;1722;51.316;12.370;2022-09-09T12:26:07;2.50;;;1.10;;
3417;SDS011;1722;51.316;12.370;2022-09-09T12:28:54;5.20;;;1.77;;
3417;SDS011;1722;51.316;12.370;2022-09-09T12:31:30;6.23;;;2.03;;
3417;SDS011;1722;51.316;12.370;2022-09-09T12:34:08;2.10;;;1.30;;
3417;SDS011;1722;51.316;12.370;2022-09-09T12:36:39;1.87;;;1.13;;
3417;SDS011;1722;51.316;12.370;2022-09-09T12:39:15;2.37;;;1.40;;
3417;SDS011;1722;51.316;12.370;2022-09-09T12:41:52;3.67;;;1.30;;
3417;SDS011;1722;51.316;12.370;2022-09-09T12:44:23;2.40;;;1.10;;
3417;SDS011;1722;51.316;12.370;2022-09-09T12:46:53;2.65;;;1.25;;
3417;SDS011;1722;51.316;12.370;2022-09-09T12:49:24;2.25;;;1.25;;
3417;SDS011;1722;51.316;12.370;2022-09-09T12:51:58;2.80;;;1.10;;
3417;SDS011;1722;51.316;12.370;2022-09-09T12:54:26;10.63;;;1.42;;
3417;SDS011;1722;51.316;12.370;2022-09-09T12:56:53;1.92;;;1.05;;
3417;SDS011;1722;51.316;12.370;2022-09-09T12:59:22;1.73;;;0.90;;
3417;SDS011;1722;51.316;12.370;2022-09-09T13:01:57;4.20;;;1.50;;
3417;SDS011;1722;51.316;12.370;2022-09-09T13:04:25;1.25;;;1.10;;
3417;SDS011;1722;51.316;12.370;2022-09-09T13:06:53;3.78;;;1.15;;
3417;SDS011;1722;51.316;12.370;2022-09-09T13:09:22;2.22;;;1.38;;
3417;SDS011;1722;51.316;12.370;2022-09-09T13:11:50;2.90;;;1.20;;
3417;SDS011;1722;51.316;12.370;2022-09-09T13:14:23;1.88;;;1.20;;
3417;SDS011;1722;51.316;12.370;2022-09-09T13:16:58;1.80;;;1.20;;
3417;SDS011;1722;51.316;12.370;2022-09-09T13:19:29;2.47;;;1.23;;
3417;SDS011;1722;51.316;12.370;2022-09-09T13:22:05;2.05;;;1.05;;
3417;SDS011;1722;51.316;12.370;2022-09-09T13:24:41;2.77;;;1.20;;
3417;SDS011;1722;51.316;12.370;2022-09-09T13:27:22;5.80;;;1.57;;
3417;SDS011;1722;51.316;12.370;2022-09-09T13:29:59;2.33;;;1.00;;
3417;SDS011;1722;51.316;12.370;2022-09-09T13:32:27;3.13;;;1.30;;
3417;SDS011;1722;51.316;12.370;2022-09-09T13:34:56;4.67;;;1.60;;
3417;SDS011;1722;51.316;12.370;2022-09-09T13:37:26;4.40;;;1.40;;
3417;SDS011;1722;51.316;12.370;2022-09-09T13:40:00;1.60;;;1.30;;
3417;SDS011;1722;51.316;12.370;2022-09-09T13:42:29;4.97;;;1.93;;
3417;SDS011;1722;51.316;12.370;2022-09-09T13:45:00;2.60;;;1.17;;
3417;SDS011;1722;51.316;12.370;2022-09-09T13:47:30;5.03;;;1.40;;
3417;SDS011;1722;51.316;12.370;2022-09-09T13:50:09;2.80;;;1.53;;
3417;SDS011;1722;51.316;12.370;2022-09-09T13:52:45;3.30;;;1.30;;
3417;SDS011;1722;51.316;12.370;2022-09-09T13:55:14;3.83;;;1.23;;
3417;SDS011;1722;51.316;12.370;2022-09-09T13:57:49;3.40;;;1.70;;
3417;SDS011;1722;51.316;12.370;2022-09-09T14:00:18;2.33;;;1.00;;
3417;SDS011;1722;51.316;12.370;2022-09-09T14:02:46;6.23;;;1.63;;
3417;SDS011;1722;51.316;12.370;2022-09-09T14:05:14;11.50;;;1.50;;
3417;SDS011;1722;51.316;12.370;2022-09-09T14:07:41;8.30;;;1.40;;
3417;SDS011;1722;51.316;12.370;2022-09-09T14:10:10;5.90;;;1.77;;
3417;SDS011;1722;51.316;12.370;2022-09-09T14:12:39;2.17;;;1.37;;
3417;SDS011;1722;51.316;12.370;2022-09-09T14:15:09;5.23;;;1.50;;
3417;SDS011;1722;51.316;12.370;2022-09-09T14:17:37;2.70;;;1.20;;
3417;SDS011;1722;51.316;12.370;2022-09-09T14:20:05;5.30;;;1.30;;
3417;SDS011;1722;51.316;12.370;2022-09-09T14:22:35;3.33;;;1.37;;
3417;SDS011;1722;51.316;12.370;2022-09-09T14:25:05;4.10;;;1.67;;
3417;SDS011;1722;51.316;12.370;2022-09-09T14:27:33;3.77;;;2.03;;
3417;SDS011;1722;51.316;12.370;2022-09-09T14:30:02;6.03;;;2.60;;
3417;SDS011;1722;51.316;12.370;2022-09-09T14:32:30;5.20;;;2.83;;
3417;SDS011;1722;51.316;12.370;2022-09-09T14:34:58;7.87;;;3.47;;
3417;SDS011;1722;51.316;12.370;2022-09-09T14:37:26;4.93;;;2.87;;
3417;SDS011;1722;51.316;12.370;2022-09-09T14:39:56;2.63;;;2.00;;
3417;SDS011;1722;51.316;12.370;2022-09-09T14:42:24;4.37;;;1.87;;
3417;SDS011;1722;51.316;12.370;2022-09-09T14:44:52;4.37;;;1.80;;
3417;SDS011;1722;51.316;12.370;2022-09-09T14:47:21;5.40;;;2.00;;
3417;SDS011;1722;51.316;12.370;2022-09-09T14:49:48;5.00;;;2.20;;
3417;SDS011;1722;51.316;12.370;2022-09-09T14:52:16;3.60;;;2.17;;
3417;SDS011;1722;51.316;12.370;2022-09-09T14:54:43;2.13;;;1.30;;
3417;SDS011;1722;51.316;12.370;2022-09-09T14:57:11;5.00;;;1.57;;
3417;SDS011;1722;51.316;12.370;2022-09-09T14:59:38;25.03;;;1.80;;
3417;SDS011;1722;51.316;12.370;2022-09-09T15:02:07;3.90;;;1.70;;
3417;SDS011;1722;51.316;12.370;2022-09-09T15:04:36;5.87;;;3.27;;
3417;SDS011;1722;51.316;12.370;2022-09-09T15:07:04;6.30;;;2.40;;
3417;SDS011;1722;51.316;12.370;2022-09-09T15:09:31;6.80;;;1.50;;
3417;SDS011;1722;51.316;12.370;2022-09-09T15:11:58;3.83;;;1.57;;
3417;SDS011;1722;51.316;12.370;2022-09-09T15:14:27;4.93;;;1.73;;
3417;SDS011;1722;51.316;12.370;2022-09-09T15:16:54;3.93;;;2.03;;
3417;SDS011;1722;51.316;12.370;2022-09-09T15:19:22;6.50;;;2.07;;
3417;SDS011;1722;51.316;12.370;2022-09-09T15:21:51;3.47;;;1.90;;
3417;SDS011;1722;51.316;12.370;2022-09-09T15:24:18;7.63;;;1.70;;
3417;SDS011;1722;51.316;12.370;2022-09-09T15:26:46;5.93;;;3.03;;
3417;SDS011;1722;51.316;12.370;2022-09-09T15:29:13;5.07;;;2.80;;
3417;SDS011;1722;51.316;12.370;2022-09-09T15:31:41;4.97;;;2.50;;